Gulkana, AK

7:39 PM AKST on February 26, 2017 (GMT -0900)
Copper Bluff Subdivision | | Change Station

Elev 1625 ft 62.29 °N, 145.34 °W | Updated 5 minutes ago

Clear
Clear
17.4 °F
Feels Like 17 °F
N
2.0
Wind Variable Wind from ENE
Gusts 5.0 mph

Today
High -- | Low -- °F
--% Chance of Precip.
Yesterday
High -- | Low -- °F
Precip. -- in
Pressure 30.25 in
Visibility 10.0 miles
Clouds Clear
Windchill 17 °F
Dew Point 15 °F
Humidity 90%
Rainfall 0.00 in
Snow Depth Not available.
7:52 AM 5:57 PM
New Moon, 0% visible
METAR PAGK 270353Z AUTO 00000KT 10SM CLR M12/M12 A3011 RMK AO2 SLP242 T11171122 TSNO $
Pressure 30.25 in
Visibility 10.0 miles
Clouds Clear
Windchill 17 °F
Dew Point 15 °F
Humidity 90%
Rainfall 0.00 in
Snow Depth Not available.
7:52 AM 5:57 PM
New Moon, 0% visible
METAR PAGK 270353Z AUTO 00000KT 10SM CLR M12/M12 A3011 RMK AO2 SLP242 T11171122 TSNO $

Get Your Daily Forecast Email!

Thanks for signing up!

Be on the lookout for a verification email in your inbox.

You'll start receiving the daily forecast at 8 AM.

×

10-Day Weather Forecast

Almanac

Astronomy

Feb. 26, 2017 Rise Set
Actual Time
Civil Twilight
Nautical Twilight
Astronomical Twilight
Moon
Length of Visible Light
Length of Day
Tomorrow will be .
, % of the Moon is Illuminated

Today's Extremes

State Highs State Lows

Community

WunderPhotos

Upload Photos

1,962,540 photos uploaded!

WunderBlog® & News

Nearby

Air Quality

  Air Quality AQ Index Pollutant
Not available.

Snow Depth

Station Depth Elevation

Earthquake Activity

City Distance Mag. Time & Date
Minimum magnitude displayed is 2.5.

Coastal Water Temperatures

Place Temperature

Stations

Nearby Weather Stations

Station Location Temp. Windchill Dew Point Humidity Wind Precip. Elev Updated Type
                   

Watches & Warnings

There are currently no watches in effect.